createdAt,value
2023-05-18T00:01:57.201Z,1.80
2023-05-18T00:04:27.073Z,1.80
2023-05-18T00:07:01.195Z,1.90
2023-05-18T00:09:32.138Z,1.90
2023-05-18T00:12:03.090Z,1.90
2023-05-18T00:14:33.144Z,1.80
2023-05-18T00:17:03.055Z,2.07
2023-05-18T00:19:33.228Z,1.90
2023-05-18T00:22:03.555Z,2.03
2023-05-18T00:24:35.044Z,2.23
2023-05-18T00:27:05.005Z,1.93
2023-05-18T00:29:34.743Z,1.70
2023-05-18T00:32:06.717Z,1.90
2023-05-18T00:34:36.725Z,1.97
2023-05-18T00:37:06.293Z,1.90
2023-05-18T00:39:36.212Z,2.57
2023-05-18T00:42:07.709Z,2.30
2023-05-18T00:44:37.547Z,2.40
2023-05-18T00:47:07.488Z,2.03
2023-05-18T00:49:37.645Z,2.12
2023-05-18T00:52:08.713Z,2.30
2023-05-18T00:54:38.778Z,2.10
2023-05-18T00:57:08.956Z,1.93
2023-05-18T00:59:39.930Z,2.20
2023-05-18T01:02:12.082Z,1.90
2023-05-18T01:04:42.937Z,1.87
2023-05-18T01:07:14.598Z,2.30
2023-05-18T01:09:44.294Z,1.90
2023-05-18T01:12:22.136Z,2.10
2023-05-18T01:14:57.311Z,2.02
2023-05-18T01:17:47.352Z,2.30
2023-05-18T01:20:45.943Z,2.15
2023-05-18T01:23:28.904Z,1.80
2023-05-18T01:26:01.964Z,2.23
2023-05-18T01:28:33.955Z,2.17
2023-05-18T01:31:04.466Z,2.25
2023-05-18T01:33:34.952Z,2.63
2023-05-18T01:36:06.681Z,1.90
2023-05-18T01:38:37.013Z,2.43
2023-05-18T01:41:24.464Z,2.17
2023-05-18T01:44:17.431Z,2.13
2023-05-18T01:47:08.428Z,2.00
2023-05-18T01:49:41.978Z,2.70
2023-05-18T01:52:14.923Z,2.30
2023-05-18T01:54:47.572Z,2.40
2023-05-18T01:57:19.448Z,2.65
2023-05-18T01:59:49.679Z,2.23
2023-05-18T02:02:19.642Z,2.27
2023-05-18T02:04:49.598Z,2.30
2023-05-18T02:07:19.909Z,1.77
2023-05-18T02:09:49.869Z,2.23
2023-05-18T02:12:19.511Z,2.23
2023-05-18T02:14:49.747Z,2.40
2023-05-18T02:17:19.315Z,2.70
2023-05-18T02:19:49.264Z,2.20
2023-05-18T02:22:19.501Z,2.37
2023-05-18T02:24:49.782Z,2.50
2023-05-18T02:27:19.695Z,2.13
2023-05-18T02:29:51.706Z,2.40
2023-05-18T02:32:21.536Z,2.47
2023-05-18T02:34:54.456Z,2.60
2023-05-18T02:37:24.577Z,2.27
2023-05-18T02:39:54.504Z,2.80
2023-05-18T02:42:24.325Z,2.08
2023-05-18T02:44:54.176Z,2.63
2023-05-18T02:47:24.183Z,2.30
2023-05-18T02:49:54.070Z,2.93
2023-05-18T02:52:24.149Z,2.42
2023-05-18T02:54:54.756Z,2.50
2023-05-18T02:57:26.465Z,2.30
2023-05-18T03:00:13.024Z,3.06
2023-05-18T03:02:44.440Z,2.90
2023-05-18T03:05:15.764Z,2.30
2023-05-18T03:07:47.238Z,2.53
2023-05-18T03:10:17.597Z,2.83
2023-05-18T03:12:48.562Z,2.37
2023-05-18T03:15:18.176Z,2.87
2023-05-18T03:17:49.571Z,2.40
2023-05-18T03:23:08.960Z,3.00
2023-05-18T03:25:38.942Z,3.07
2023-05-18T03:28:11.412Z,3.50
2023-05-18T03:30:41.621Z,2.67
2023-05-18T03:33:12.292Z,3.40
2023-05-18T03:35:42.416Z,3.03
2023-05-18T03:38:12.295Z,2.73
2023-05-18T03:40:44.041Z,2.97
2023-05-18T03:43:13.895Z,2.70
2023-05-18T03:45:43.998Z,3.00
2023-05-18T03:48:14.441Z,2.70
2023-05-18T03:50:44.739Z,2.77
2023-05-18T03:53:14.614Z,3.60
2023-05-18T03:55:44.515Z,2.57
2023-05-18T03:58:14.312Z,2.85
2023-05-18T04:00:43.887Z,2.70
2023-05-18T04:03:15.169Z,2.70
2023-05-18T04:05:45.968Z,3.03
2023-05-18T04:08:15.911Z,3.12
2023-05-18T04:10:46.657Z,2.70
2023-05-18T04:13:16.264Z,3.20
2023-05-18T04:15:46.114Z,3.20
2023-05-18T04:18:16.050Z,2.77
2023-05-18T04:20:46.161Z,3.10
2023-05-18T04:23:16.820Z,2.87
2023-05-18T04:25:46.738Z,3.10
2023-05-18T04:28:16.633Z,3.87
2023-05-18T04:30:47.530Z,3.17
2023-05-18T04:33:17.379Z,3.30
2023-05-18T04:35:47.309Z,3.43
2023-05-18T04:38:17.404Z,2.97
2023-05-18T04:40:47.300Z,3.63
2023-05-18T04:43:18.464Z,3.40
2023-05-18T04:45:50.043Z,3.43
2023-05-18T04:48:20.084Z,3.75
2023-05-18T04:50:51.940Z,3.70
2023-05-18T04:53:23.031Z,3.05
2023-05-18T04:55:54.480Z,4.03
2023-05-18T04:58:24.097Z,3.40
2023-05-18T05:00:54.631Z,3.27
2023-05-18T05:03:24.662Z,3.63
2023-05-18T05:05:54.623Z,3.70
2023-05-18T05:08:24.282Z,3.55
2023-05-18T05:10:54.445Z,3.42
2023-05-18T05:13:24.658Z,3.47
2023-05-18T05:15:54.796Z,3.20
2023-05-18T05:18:24.439Z,3.27
2023-05-18T05:20:55.153Z,3.53
2023-05-18T05:23:24.991Z,3.20
2023-05-18T05:25:56.564Z,3.57
2023-05-18T05:28:26.409Z,3.20
2023-05-18T05:30:56.537Z,3.70
2023-05-18T05:33:26.279Z,3.10
2023-05-18T05:35:56.517Z,3.27
2023-05-18T05:38:26.682Z,2.90
2023-05-18T05:40:56.502Z,2.90
2023-05-18T05:43:26.616Z,2.83
2023-05-18T05:45:56.450Z,3.23
2023-05-18T05:48:26.958Z,3.00
2023-05-18T05:50:57.121Z,3.15
2023-05-18T05:53:27.042Z,2.50
2023-05-18T05:55:56.958Z,3.23
2023-05-18T05:58:26.605Z,3.22
2023-05-18T06:00:58.238Z,2.57
2023-05-18T06:03:29.260Z,2.93
2023-05-18T06:06:00.894Z,2.47
2023-05-18T06:08:31.495Z,2.53
2023-05-18T06:11:01.698Z,2.60
2023-05-18T06:13:32.115Z,2.50
2023-05-18T06:16:01.709Z,2.70
2023-05-18T06:18:32.008Z,2.80
2023-05-18T06:21:03.606Z,2.40
2023-05-18T06:23:34.753Z,2.70
2023-05-18T06:26:08.251Z,2.75
2023-05-18T06:28:55.747Z,3.30
2023-05-18T06:31:30.675Z,2.85
2023-05-18T06:34:11.505Z,2.40
2023-05-18T06:36:41.560Z,3.00
2023-05-18T06:39:11.174Z,2.70
2023-05-18T06:41:41.767Z,2.98
2023-05-18T06:44:11.972Z,3.40
2023-05-18T06:46:43.858Z,2.60
2023-05-18T06:49:15.527Z,2.75
2023-05-18T06:51:46.449Z,2.77
2023-05-18T06:54:16.330Z,2.97
2023-05-18T06:56:47.227Z,3.40
2023-05-18T06:59:18.056Z,3.30
2023-05-18T07:01:47.963Z,3.23
2023-05-18T07:04:19.348Z,2.90
2023-05-18T07:06:49.577Z,2.90
2023-05-18T07:09:19.767Z,2.95
2023-05-18T07:11:49.685Z,2.80
2023-05-18T07:14:19.515Z,2.55
2023-05-18T07:16:49.106Z,3.00
2023-05-18T07:19:19.085Z,3.00
2023-05-18T07:21:49.032Z,3.40
2023-05-18T07:24:19.268Z,3.40
2023-05-18T07:26:49.188Z,3.17
2023-05-18T07:29:19.042Z,3.13
2023-05-18T07:31:48.948Z,2.80
2023-05-18T07:34:18.631Z,3.30
2023-05-18T07:36:48.195Z,3.30
2023-05-18T07:39:19.890Z,2.97
2023-05-18T07:41:50.046Z,2.73
2023-05-18T07:44:19.882Z,2.77
2023-05-18T07:46:49.802Z,3.57
2023-05-18T07:49:19.866Z,3.07
2023-05-18T07:51:50.485Z,3.40
2023-05-18T07:54:20.385Z,3.37
2023-05-18T07:56:50.388Z,4.00
2023-05-18T07:59:20.981Z,2.80
2023-05-18T08:01:50.867Z,3.30
2023-05-18T08:04:21.127Z,2.95
2023-05-18T08:06:52.599Z,2.87
2023-05-18T08:09:22.858Z,3.05
2023-05-18T08:11:52.543Z,2.70
2023-05-18T08:14:22.194Z,3.23
2023-05-18T08:16:52.102Z,3.17
2023-05-18T08:19:22.036Z,3.10
2023-05-18T08:21:52.222Z,2.80
2023-05-18T08:24:22.066Z,2.75
2023-05-18T08:26:52.519Z,3.07
2023-05-18T08:29:22.421Z,2.90
2023-05-18T08:31:52.646Z,3.00
2023-05-18T08:34:22.556Z,2.93
2023-05-18T08:36:52.784Z,2.90
2023-05-18T08:39:23.015Z,3.33
2023-05-18T08:41:58.678Z,3.47
2023-05-18T08:44:37.227Z,2.67
2023-05-18T08:47:10.683Z,2.63
2023-05-18T08:49:43.159Z,2.65
2023-05-18T08:52:16.027Z,2.40
2023-05-18T08:54:47.219Z,2.67
2023-05-18T08:57:18.982Z,2.60
2023-05-18T08:59:50.018Z,3.37
2023-05-18T09:02:20.209Z,2.80
2023-05-18T09:04:50.582Z,2.55
2023-05-18T09:07:22.543Z,2.70
2023-05-18T09:09:53.636Z,2.85
2023-05-18T09:12:24.705Z,2.60
2023-05-18T09:14:55.395Z,2.63
2023-05-18T09:17:25.265Z,2.77
2023-05-18T09:19:55.169Z,3.10
2023-05-18T09:22:24.856Z,2.87
2023-05-18T09:24:55.261Z,2.80
2023-05-18T09:27:26.302Z,2.33
2023-05-18T09:29:57.679Z,2.80
2023-05-18T09:32:27.884Z,2.55
2023-05-18T09:34:59.497Z,2.33
2023-05-18T09:37:29.313Z,2.80
2023-05-18T09:40:01.302Z,2.60
2023-05-18T09:42:42.395Z,2.27
2023-05-18T09:45:19.881Z,3.02
2023-05-18T09:47:51.622Z,2.83
2023-05-18T09:50:25.544Z,2.60
2023-05-18T09:52:57.426Z,2.63
2023-05-18T09:55:27.289Z,2.30
2023-05-18T09:57:58.051Z,2.60
2023-05-18T10:00:27.903Z,2.50
2023-05-18T10:02:57.797Z,3.10
2023-05-18T10:05:32.576Z,2.80
2023-05-18T10:08:02.161Z,2.60
2023-05-18T10:10:32.060Z,2.65
2023-05-18T10:13:03.036Z,2.80
2023-05-18T10:15:33.557Z,2.00
2023-05-18T10:18:07.638Z,2.87
2023-05-18T10:20:37.952Z,2.43
2023-05-18T10:23:08.849Z,2.70
2023-05-18T10:25:39.420Z,2.43
2023-05-18T10:28:12.513Z,2.98
2023-05-18T10:30:43.537Z,2.60
2023-05-18T10:33:27.685Z,2.55
2023-05-18T10:35:49.338Z,2.47
2023-05-18T10:38:22.054Z,2.80
2023-05-18T10:40:54.252Z,2.67
2023-05-18T10:43:27.074Z,2.73
2023-05-18T10:45:59.321Z,2.33
2023-05-18T10:48:30.535Z,3.23
2023-05-18T10:51:00.613Z,2.60
2023-05-18T10:53:30.554Z,3.03
2023-05-18T10:56:01.558Z,2.13
2023-05-18T10:58:32.926Z,2.33
2023-05-18T11:01:05.247Z,2.30
2023-05-18T11:03:35.148Z,2.50
2023-05-18T11:06:11.674Z,2.90
2023-05-18T11:11:16.483Z,2.67
2023-05-18T11:13:51.250Z,2.60
2023-05-18T11:16:21.590Z,3.20
2023-05-18T11:18:53.095Z,2.73
2023-05-18T11:21:33.626Z,2.50
2023-05-18T11:24:23.767Z,2.35
2023-05-18T11:26:58.685Z,2.40
2023-05-18T11:29:40.597Z,2.60
2023-05-18T11:32:30.342Z,2.18
2023-05-18T11:34:59.462Z,2.17
2023-05-18T11:37:45.161Z,2.17
2023-05-18T11:40:34.259Z,2.47
2023-05-18T11:43:04.096Z,2.57
2023-05-18T11:45:35.217Z,2.40
2023-05-18T11:48:07.570Z,2.57
2023-05-18T11:50:37.674Z,2.40
2023-05-18T11:53:08.253Z,2.15
2023-05-18T11:55:42.303Z,2.77
2023-05-18T11:58:14.048Z,2.50
2023-05-18T12:00:44.045Z,2.23
2023-05-18T12:03:14.728Z,2.70
2023-05-18T12:05:46.564Z,2.40
2023-05-18T12:08:19.312Z,2.37
2023-05-18T12:10:50.516Z,2.40
2023-05-18T12:13:21.337Z,2.60
2023-05-18T12:15:53.026Z,2.90
2023-05-18T12:18:22.855Z,3.00
2023-05-18T12:20:53.974Z,2.07
2023-05-18T12:23:28.428Z,2.67
2023-05-18T12:25:58.808Z,3.10
2023-05-18T12:28:30.097Z,3.10
2023-05-18T12:31:01.670Z,2.53
2023-05-18T12:33:33.071Z,2.40
2023-05-18T12:36:02.606Z,2.87
2023-05-18T12:38:32.755Z,2.33
2023-05-18T12:41:02.582Z,2.33
2023-05-18T12:43:36.072Z,2.50
2023-05-18T12:46:07.274Z,2.40
2023-05-18T12:48:39.422Z,2.90
2023-05-18T12:51:12.345Z,2.63
2023-05-18T12:53:45.173Z,2.60
2023-05-18T12:56:14.950Z,2.90
2023-05-18T12:58:56.511Z,2.97
2023-05-18T13:01:27.034Z,2.57
2023-05-18T13:03:58.629Z,2.70
2023-05-18T13:06:28.537Z,2.63
2023-05-18T13:08:58.392Z,2.40
2023-05-18T13:11:28.260Z,2.43
2023-05-18T13:14:10.555Z,2.87
2023-05-18T13:16:42.924Z,2.97
2023-05-18T13:19:14.507Z,2.40
2023-05-18T13:21:44.444Z,2.23
2023-05-18T13:24:14.653Z,2.73
2023-05-18T13:26:44.506Z,2.47
2023-05-18T13:29:14.641Z,2.40
2023-05-18T13:31:44.513Z,2.53
2023-05-18T13:34:14.389Z,2.30
2023-05-18T13:36:44.223Z,2.40
2023-05-18T13:39:14.071Z,2.93
2023-05-18T13:41:43.903Z,2.73
2023-05-18T13:44:15.364Z,2.30
2023-05-18T13:46:45.674Z,2.55
2023-05-18T13:49:15.529Z,2.70
2023-05-18T13:51:45.663Z,3.05
2023-05-18T13:54:15.559Z,2.77
2023-05-18T13:56:45.471Z,2.73
2023-05-18T13:59:16.288Z,2.80
2023-05-18T14:01:47.583Z,2.90
2023-05-18T14:04:17.163Z,2.60
2023-05-18T14:06:47.067Z,2.37
2023-05-18T14:09:16.975Z,3.10
2023-05-18T14:11:46.823Z,2.90
2023-05-18T14:14:16.897Z,2.87
2023-05-18T14:16:47.000Z,2.97
2023-05-18T14:19:16.911Z,2.90
2023-05-18T14:21:46.813Z,2.93
2023-05-18T14:24:16.700Z,3.10
2023-05-18T14:26:46.595Z,3.07
2023-05-18T14:29:16.448Z,2.80
2023-05-18T14:31:46.352Z,2.70
2023-05-18T14:34:16.196Z,2.60
2023-05-18T14:36:46.279Z,2.97
2023-05-18T14:39:16.123Z,2.90
2023-05-18T14:41:46.112Z,3.20
2023-05-18T14:44:16.252Z,3.08
2023-05-18T14:46:46.261Z,3.40
2023-05-18T14:49:15.922Z,3.30
2023-05-18T14:51:46.158Z,2.80
2023-05-18T14:54:16.049Z,3.22
2023-05-18T14:56:45.965Z,2.93
2023-05-18T14:59:15.799Z,3.73
2023-05-18T15:01:45.728Z,3.17
2023-05-18T15:04:15.435Z,3.13
2023-05-18T15:06:45.338Z,2.90
2023-05-18T15:09:15.364Z,3.73
2023-05-18T15:11:45.549Z,3.40
2023-05-18T15:14:15.334Z,3.40
2023-05-18T15:16:45.235Z,3.00
2023-05-18T15:19:15.214Z,2.90
2023-05-18T15:21:45.062Z,2.80
2023-05-18T15:24:15.027Z,3.23
2023-05-18T15:26:45.107Z,3.57
2023-05-18T15:29:14.975Z,2.90
2023-05-18T15:31:45.546Z,3.23
2023-05-18T15:34:15.509Z,3.27
2023-05-18T15:36:45.114Z,2.55
2023-05-18T15:39:15.031Z,3.10
2023-05-18T15:41:44.885Z,3.43
2023-05-18T15:44:14.409Z,2.77
2023-05-18T15:46:44.698Z,3.17
2023-05-18T15:49:14.300Z,3.60
2023-05-18T15:51:44.211Z,3.30
2023-05-18T15:54:13.884Z,3.27
2023-05-18T15:56:44.283Z,3.15
2023-05-18T15:59:14.152Z,3.23
2023-05-18T16:01:44.104Z,3.60
2023-05-18T16:04:14.078Z,4.12
2023-05-18T16:06:44.371Z,3.12
2023-05-18T16:09:14.211Z,3.27
2023-05-18T16:11:44.068Z,3.40
2023-05-18T16:14:14.100Z,4.03
2023-05-18T16:16:43.716Z,3.75
2023-05-18T16:19:13.605Z,3.60
2023-05-18T16:21:43.490Z,3.30
2023-05-18T16:24:13.039Z,3.25
2023-05-18T16:26:42.924Z,3.73
2023-05-18T16:29:12.772Z,3.73
2023-05-18T16:31:42.740Z,3.27
2023-05-18T16:34:12.591Z,8.98
2023-05-18T16:36:42.155Z,3.85
2023-05-18T16:39:11.988Z,3.87
2023-05-18T16:41:41.826Z,4.23
2023-05-18T16:44:12.978Z,3.50
2023-05-18T16:46:42.833Z,3.60
2023-05-18T16:49:12.737Z,3.77
2023-05-18T16:51:42.713Z,3.47
2023-05-18T16:54:12.989Z,3.56
2023-05-18T16:56:42.819Z,3.33
2023-05-18T16:59:12.668Z,3.50
2023-05-18T17:01:42.565Z,4.07
2023-05-18T17:04:14.368Z,8.05
2023-05-18T17:06:44.468Z,4.57
2023-05-18T17:09:16.275Z,7.80
2023-05-18T17:11:46.109Z,6.87
2023-05-18T17:14:16.130Z,5.47
2023-05-18T17:16:45.954Z,5.60
2023-05-18T17:19:16.161Z,7.30
2023-05-18T17:21:46.122Z,16.30
2023-05-18T17:24:16.020Z,11.50
2023-05-18T17:26:45.933Z,7.90
2023-05-18T17:29:17.898Z,5.37
2023-05-18T17:31:47.310Z,5.80
2023-05-18T17:34:17.071Z,4.53
2023-05-18T17:36:47.663Z,6.08
2023-05-18T17:39:18.026Z,3.47
2023-05-18T17:41:47.844Z,3.47
2023-05-18T17:44:18.059Z,4.10
2023-05-18T17:46:48.971Z,3.37
2023-05-18T17:49:18.917Z,3.77
2023-05-18T17:51:48.840Z,4.00
2023-05-18T17:54:18.781Z,3.37
2023-05-18T17:56:48.640Z,3.73
2023-05-18T17:59:18.474Z,2.90
2023-05-18T18:01:48.654Z,3.70
2023-05-18T18:04:18.640Z,5.17
2023-05-18T18:06:48.666Z,3.67
2023-05-18T18:09:18.802Z,3.75
2023-05-18T18:11:48.911Z,2.90
2023-05-18T18:14:19.044Z,3.90
2023-05-18T18:16:49.095Z,3.90
2023-05-18T18:19:18.987Z,5.00
2023-05-18T18:21:48.892Z,3.77
2023-05-18T18:24:19.043Z,3.33
2023-05-18T18:26:51.085Z,2.80
2023-05-18T18:29:21.290Z,2.90
2023-05-18T18:31:51.135Z,2.87
2023-05-18T18:34:20.675Z,2.80
2023-05-18T18:36:50.594Z,3.23
2023-05-18T18:39:20.501Z,3.00
2023-05-18T18:41:51.018Z,2.70
2023-05-18T18:44:21.133Z,3.00
2023-05-18T18:46:51.152Z,3.07
2023-05-18T18:49:21.225Z,2.97
2023-05-18T18:51:53.039Z,3.20
2023-05-18T18:54:23.389Z,2.73
2023-05-18T18:56:54.218Z,2.65
2023-05-18T18:59:24.352Z,3.08
2023-05-18T19:01:54.239Z,3.30
2023-05-18T19:04:23.944Z,2.83
2023-05-18T19:06:56.621Z,3.37
2023-05-18T19:11:58.033Z,2.60
2023-05-18T19:14:28.099Z,3.10
2023-05-18T19:16:57.930Z,2.90
2023-05-18T19:19:27.874Z,2.53
2023-05-18T19:21:57.780Z,3.30
2023-05-18T19:24:27.603Z,3.23
2023-05-18T19:26:57.459Z,3.47
2023-05-18T19:29:27.580Z,2.93
2023-05-18T19:31:58.149Z,2.87
2023-05-18T19:34:27.747Z,2.70
2023-05-18T19:36:57.660Z,3.37
2023-05-18T19:39:27.502Z,3.17
2023-05-18T19:41:57.334Z,2.80
2023-05-18T19:44:27.556Z,2.83
2023-05-18T19:46:57.414Z,3.03
2023-05-18T19:49:27.415Z,2.80
2023-05-18T19:51:57.294Z,2.50
2023-05-18T19:54:27.448Z,2.70
2023-05-18T19:56:57.280Z,2.87
2023-05-18T19:59:27.133Z,3.00
2023-05-18T20:02:00.368Z,3.33
2023-05-18T20:04:30.345Z,3.10
2023-05-18T20:07:00.808Z,3.57
2023-05-18T20:09:31.090Z,3.23
2023-05-18T20:12:01.010Z,3.33
2023-05-18T20:14:30.787Z,2.92
2023-05-18T20:17:00.943Z,3.17
2023-05-18T20:19:31.189Z,3.00
2023-05-18T20:22:01.107Z,3.10
2023-05-18T20:24:31.098Z,3.10
2023-05-18T20:27:01.570Z,3.67
2023-05-18T20:29:31.406Z,3.70
2023-05-18T20:32:01.617Z,4.20
2023-05-18T20:34:31.776Z,3.37
2023-05-18T20:37:01.701Z,3.53
2023-05-18T20:39:31.691Z,3.20
2023-05-18T20:42:03.039Z,3.55
2023-05-18T20:44:32.710Z,3.33
2023-05-18T20:47:02.554Z,3.65
2023-05-18T20:49:32.554Z,3.67
2023-05-18T20:52:02.388Z,3.37
2023-05-18T20:54:32.528Z,3.42
2023-05-18T20:57:03.852Z,4.25
2023-05-18T20:59:34.528Z,3.87
2023-05-18T21:02:04.988Z,3.83
2023-05-18T21:04:35.236Z,4.00
2023-05-18T21:07:05.525Z,4.85
2023-05-18T21:09:35.723Z,4.90
2023-05-18T21:12:06.457Z,3.67
2023-05-18T21:14:36.608Z,3.90
2023-05-18T21:17:06.841Z,3.70
2023-05-18T21:19:36.691Z,4.23
2023-05-18T21:22:06.604Z,4.13
2023-05-18T21:24:36.759Z,4.53
2023-05-18T21:27:07.024Z,4.20
2023-05-18T21:29:37.189Z,5.17
2023-05-18T21:32:07.017Z,4.20
2023-05-18T21:34:37.237Z,5.25
2023-05-18T21:37:08.132Z,6.03
2023-05-18T21:39:37.993Z,5.03
2023-05-18T21:42:08.006Z,5.03
2023-05-18T21:44:38.126Z,5.08
2023-05-18T21:47:08.141Z,5.40
2023-05-18T21:49:38.336Z,5.40
2023-05-18T21:52:08.260Z,5.30
2023-05-18T21:54:38.860Z,5.90
2023-05-18T21:57:08.794Z,5.37
2023-05-18T21:59:38.616Z,5.10
2023-05-18T22:02:08.479Z,6.17
2023-05-18T22:04:38.776Z,5.95
2023-05-18T22:07:09.303Z,6.70
2023-05-18T22:09:39.450Z,6.05
2023-05-18T22:12:09.356Z,6.60
2023-05-18T22:14:38.953Z,6.45
2023-05-18T22:17:08.855Z,6.70
2023-05-18T22:19:38.747Z,7.17
2023-05-18T22:22:13.780Z,6.63
2023-05-18T22:24:41.728Z,6.30
2023-05-18T22:27:11.928Z,6.43
2023-05-18T22:29:42.077Z,5.95
2023-05-18T22:32:13.287Z,5.73
2023-05-18T22:34:43.103Z,5.77
2023-05-18T22:37:12.941Z,5.97
2023-05-18T22:39:43.678Z,6.27
2023-05-18T22:42:14.670Z,5.40
2023-05-18T22:44:44.650Z,5.07
2023-05-18T22:47:16.289Z,5.30
2023-05-18T22:49:46.611Z,5.62
2023-05-18T22:52:21.207Z,5.76
2023-05-18T22:54:51.407Z,5.17
2023-05-18T22:57:21.300Z,5.90
2023-05-18T22:59:51.473Z,6.22
2023-05-18T23:02:21.322Z,5.03
2023-05-18T23:04:51.493Z,5.58
2023-05-18T23:07:23.263Z,5.72
2023-05-18T23:09:53.679Z,5.72
2023-05-18T23:12:23.646Z,5.97
2023-05-18T23:14:55.132Z,5.73
2023-05-18T23:17:26.452Z,5.37
2023-05-18T23:19:58.480Z,5.27
2023-05-18T23:22:28.038Z,4.70
2023-05-18T23:24:57.865Z,5.33
2023-05-18T23:27:27.711Z,5.13
2023-05-18T23:29:57.888Z,5.85
2023-05-18T23:32:28.217Z,5.20
2023-05-18T23:34:59.528Z,5.40
2023-05-18T23:37:31.875Z,5.00
2023-05-18T23:40:03.626Z,5.30
2023-05-18T23:42:34.053Z,5.10
2023-05-18T23:45:04.651Z,5.28
2023-05-18T23:47:34.819Z,5.17
2023-05-18T23:50:06.171Z,5.60
2023-05-18T23:52:37.125Z,5.60
2023-05-18T23:55:09.348Z,5.40
2023-05-18T23:57:39.423Z,4.83
